Time;durP1;ratioP1;P1;durP2;ratioP2;P2;SDS_P1;SDS_P2;PMS_P1;PMS_P2;Temp;Humidity;BMP_temperature;BMP_pressure;BME280_temperature;BME280_humidity;BME280_pressure;Samples;Min_cycle;Max_cycle;Signal;HPM_P1;HPM_P2
2022/10/29 00:00:55;;;;;;;14.60;9.80;;;;;;;12.85;89.33;100565.99;126851;1281;107414;-78
2022/10/29 00:04:14;;;;;;;13.60;9.20;;;;;;;12.85;89.09;100561.73;126835;1278;107472;-79
2022/10/29 00:07:19;;;;;;;12.20;9.40;;;;;;;12.84;89.18;100560.09;126882;1278;107494;-78
2022/10/29 00:10:24;;;;;;;18.10;9.30;;;;;;;12.81;88.97;100560.73;126921;1279;107475;-78
2022/10/29 00:13:30;;;;;;;12.40;8.80;;;;;;;12.77;88.99;100564.15;126875;1279;107609;-79
2022/10/29 00:16:39;;;;;;;14.70;8.20;;;;;;;12.72;89.09;100563.63;126881;1286;107702;-78
2022/10/29 00:19:44;;;;;;;11.80;8.10;;;;;;;12.67;89.25;100561.66;126898;1278;106608;-78
2022/10/29 00:22:52;;;;;;;14.10;7.90;;;;;;;12.64;88.95;100562.20;126852;1275;107953;-78
2022/10/29 00:25:59;;;;;;;11.40;7.70;;;;;;;12.63;89.06;100562.58;126911;1283;107527;-78
2022/10/29 00:29:04;;;;;;;12.70;8.30;;;;;;;12.63;88.98;100564.75;126852;1285;107524;-79
2022/10/29 00:32:10;;;;;;;12.90;8.50;;;;;;;12.62;88.88;100566.52;126856;1280;107353;-78
2022/10/29 00:35:15;;;;;;;14.50;7.50;;;;;;;12.57;88.81;100563.18;126878;1280;107427;-78
2022/10/29 00:38:21;;;;;;;12.20;6.80;;;;;;;12.52;88.68;100553.35;126853;1275;107526;-78
2022/10/29 00:41:28;;;;;;;12.90;7.20;;;;;;;12.49;88.85;100551.15;126818;1279;107340;-80
2022/10/29 00:44:37;;;;;;;12.40;7.70;;;;;;;12.48;88.84;100548.84;126889;1278;107369;-78
2022/10/29 00:47:43;;;;;;;8.70;6.90;;;;;;;12.46;88.83;100547.06;126889;1285;107278;-78
2022/10/29 00:50:49;;;;;;;13.40;7.90;;;;;;;12.44;88.68;100545.24;126867;1272;107475;-78
2022/10/29 00:53:58;;;;;;;12.00;7.50;;;;;;;12.41;88.72;100548.09;126864;1280;107345;-79
2022/10/29 00:57:07;;;;;;;10.10;7.20;;;;;;;12.36;88.71;100549.14;126925;1280;105636;-78
2022/10/29 01:00:15;;;;;;;11.70;7.70;;;;;;;12.30;88.59;100548.47;126893;1280;107522;-78
2022/10/29 01:03:20;;;;;;;11.90;7.60;;;;;;;12.28;88.62;100551.53;126914;1275;107477;-78
2022/10/29 01:06:28;;;;;;;11.10;7.60;;;;;;;12.28;88.62;100553.15;126909;1279;108511;-78
2022/10/29 01:09:34;;;;;;;11.60;7.70;;;;;;;12.28;88.62;100553.70;126921;1287;107350;-78
2022/10/29 01:12:58;;;;;;;13.70;8.80;;;;;;;12.29;88.45;100560.39;126862;1285;107451;-78
2022/10/29 01:16:14;;;;;;;11.30;7.40;;;;;;;12.28;88.46;100550.28;126882;1276;107299;-79
2022/10/29 01:19:38;;;;;;;9.70;6.80;;;;;;;12.26;88.60;100548.92;126821;1286;107553;-79
2022/10/29 01:22:50;;;;;;;11.10;6.80;;;;;;;12.23;88.43;100547.48;126899;1286;107431;-78
2022/10/29 01:26:18;;;;;;;9.80;7.00;;;;;;;12.24;88.27;100547.34;126996;1279;107376;-78
2022/10/29 01:29:42;;;;;;;15.00;7.20;;;;;;;12.25;88.38;100542.60;126825;1280;110207;-78
2022/10/29 01:32:58;;;;;;;10.40;7.20;;;;;;;12.26;88.24;100546.02;126940;1278;106528;-79
2022/10/29 01:36:14;;;;;;;11.10;7.50;;;;;;;12.27;88.33;100541.00;126864;1287;107287;-77
2022/10/29 01:39:26;;;;;;;12.50;7.80;;;;;;;12.25;88.14;100544.55;126935;1278;107359;-78
2022/10/29 01:42:37;;;;;;;12.10;7.50;;;;;;;12.22;88.06;100549.54;126999;1284;107364;-79
2022/10/29 01:45:48;;;;;;;12.50;7.40;;;;;;;12.20;88.14;100548.11;126953;1292;107535;-79
2022/10/29 01:48:58;;;;;;;13.50;7.40;;;;;;;12.21;88.03;100541.61;126852;1280;107333;-78
2022/10/29 01:52:06;;;;;;;9.20;6.40;;;;;;;12.23;87.99;100537.23;126928;1275;107453;-78
2022/10/29 01:55:15;;;;;;;11.40;7.00;;;;;;;12.26;88.02;100533.38;127014;1280;107648;-77
2022/10/29 01:58:21;;;;;;;11.60;6.90;;;;;;;12.27;88.05;100529.20;126967;1285;108368;-77
2022/10/29 02:01:51;;;;;;;14.10;7.70;;;;;;;12.26;87.80;100521.67;126797;1284;107717;-76
2022/10/29 02:05:12;;;;;;;10.70;6.90;;;;;;;12.23;87.81;100522.09;126833;1286;109242;-77
2022/10/29 02:08:29;;;;;;;13.10;6.50;;;;;;;12.22;87.91;100518.16;126885;1289;107230;-79
2022/10/29 02:11:41;;;;;;;13.30;7.70;;;;;;;12.22;87.91;100508.98;126953;1287;108562;-78
2022/10/29 02:14:51;;;;;;;13.40;6.70;;;;;;;12.25;87.82;100503.48;127051;1275;107397;-78
2022/10/29 02:18:01;;;;;;;12.50;7.50;;;;;;;12.28;87.72;100499.67;127079;1280;108133;-79
2022/10/29 02:21:07;;;;;;;10.20;7.20;;;;;;;12.28;87.75;100497.50;127211;1285;107533;-78
2022/10/29 02:24:12;;;;;;;11.90;8.50;;;;;;;12.26;87.77;100498.10;127168;1275;108031;-79
2022/10/29 02:27:18;;;;;;;12.40;7.20;;;;;;;12.24;87.69;100497.21;127119;1275;107302;-78
2022/10/29 02:30:23;;;;;;;9.70;6.80;;;;;;;12.24;87.69;100500.28;126937;1285;106892;-79
2022/10/29 02:33:29;;;;;;;9.20;6.90;;;;;;;12.24;87.63;100498.84;126872;1285;107556;-78
2022/10/29 02:36:34;;;;;;;13.90;7.10;;;;;;;12.26;87.58;100492.61;126863;1284;105544;-77
2022/10/29 02:39:40;;;;;;;16.30;7.30;;;;;;;12.27;87.66;100490.67;126896;1280;107515;-77
2022/10/29 02:42:45;;;;;;;9.60;6.90;;;;;;;12.27;87.47;100487.27;127107;1275;112614;-77
2022/10/29 02:45:56;;;;;;;10.60;6.30;;;;;;;12.27;87.45;100484.99;126862;1286;107625;-78
2022/10/29 02:49:02;;;;;;;12.80;6.50;;;;;;;12.25;87.50;100481.80;126908;1280;107354;-78
2022/10/29 02:52:08;;;;;;;10.20;5.60;;;;;;;12.23;87.43;100479.11;126826;1280;107429;-77
2022/10/29 02:55:13;;;;;;;11.10;6.00;;;;;;;12.24;87.55;100474.38;126943;1280;107506;-78
2022/10/29 02:58:18;;;;;;;10.70;6.30;;;;;;;12.27;87.37;100475.86;126874;1279;108027;-77
2022/10/29 03:01:24;;;;;;;8.90;6.70;;;;;;;12.30;87.51;100473.73;126871;1279;107510;-78
2022/10/29 03:04:29;;;;;;;11.10;6.80;;;;;;;12.33;87.36;100472.73;126965;1285;106767;-77
2022/10/29 03:07:38;;;;;;;11.60;6.80;;;;;;;12.35;87.40;100469.68;126925;1283;107523;-77
2022/10/29 03:10:43;;;;;;;9.50;6.10;;;;;;;12.35;87.36;100470.58;126909;1280;107494;-77
2022/10/29 03:13:49;;;;;;;9.60;5.00;;;;;;;12.34;87.31;100461.69;126888;1279;107576;-78
2022/10/29 03:16:54;;;;;;;8.10;5.70;;;;;;;12.36;87.36;100456.15;127128;1275;106621;-78
2022/10/29 03:20:00;;;;;;;9.70;6.00;;;;;;;12.40;87.32;100456.88;127116;1280;107412;-77
2022/10/29 03:23:05;;;;;;;10.60;6.40;;;;;;;12.44;87.10;100463.58;126859;1275;106886;-78
2022/10/29 03:26:11;;;;;;;8.40;6.30;;;;;;;12.46;87.19;100469.05;126994;1275;107482;-79
2022/10/29 03:29:17;;;;;;;12.30;6.90;;;;;;;12.47;87.02;100473.99;127273;1280;107525;-77
2022/10/29 03:32:22;;;;;;;12.20;6.40;;;;;;;12.46;87.05;100476.61;126930;1283;107603;-78
2022/10/29 03:35:28;;;;;;;9.60;5.90;;;;;;;12.45;87.05;100479.17;127177;1276;107462;-79
2022/10/29 03:38:34;;;;;;;11.50;7.00;;;;;;;12.47;87.04;100479.29;127324;1296;107652;-79
2022/10/29 03:41:40;;;;;;;7.80;5.90;;;;;;;12.50;87.01;100484.15;127799;1283;107492;-79
2022/10/29 03:44:45;;;;;;;10.70;6.40;;;;;;;12.52;86.95;100481.09;127262;1276;107214;-80
2022/10/29 03:47:50;;;;;;;8.40;6.00;;;;;;;12.54;86.92;100484.43;127008;1283;107485;-79
2022/10/29 03:51:00;;;;;;;10.50;6.30;;;;;;;12.54;86.90;100484.23;126906;1299;107424;-79
2022/10/29 03:54:05;;;;;;;8.30;5.60;;;;;;;12.52;86.86;100478.73;126928;1275;107660;-79
2022/10/29 03:57:11;;;;;;;9.70;5.30;;;;;;;12.50;86.85;100472.54;126818;1275;107345;-80
2022/10/29 04:00:17;;;;;;;11.30;6.10;;;;;;;12.49;86.99;100471.03;126853;1292;107646;-79
2022/10/29 04:03:23;;;;;;;9.30;6.00;;;;;;;12.52;86.70;100464.14;126875;1275;108671;-78
2022/10/29 04:06:28;;;;;;;8.60;5.90;;;;;;;12.55;86.68;100459.51;126863;1283;107388;-78
2022/10/29 04:09:34;;;;;;;9.00;6.40;;;;;;;12.57;86.87;100452.70;126883;1292;107251;-78
2022/10/29 04:12:39;;;;;;;8.30;5.90;;;;;;;12.58;86.84;100451.58;126972;1283;107377;-79
2022/10/29 04:15:44;;;;;;;11.20;5.20;;;;;;;12.56;86.77;100450.84;126849;1283;108034;-78
2022/10/29 04:18:50;;;;;;;7.40;5.50;;;;;;;12.57;86.76;100453.23;126842;1285;107496;-79
2022/10/29 04:21:56;;;;;;;9.00;5.40;;;;;;;12.60;86.76;100453.34;126842;1299;107295;-78
2022/10/29 04:25:01;;;;;;;9.80;5.50;;;;;;;12.64;86.79;100440.97;126821;1285;107518;-81
2022/10/29 04:28:06;;;;;;;11.90;5.70;;;;;;;12.68;86.68;100435.34;126800;1279;107511;-79
2022/10/29 04:31:13;;;;;;;8.80;6.10;;;;;;;12.71;86.64;100445.05;126828;1292;107348;-78
2022/10/29 04:34:18;;;;;;;7.60;5.80;;;;;;;12.73;86.68;100441.98;126821;1280;107536;-78
2022/10/29 04:37:24;;;;;;;11.10;5.80;;;;;;;12.73;86.72;100443.34;126790;1285;107244;-77
2022/10/29 04:40:29;;;;;;;6.50;4.30;;;;;;;12.73;86.57;100443.33;126984;1275;107041;-78
2022/10/29 04:43:35;;;;;;;9.50;5.40;;;;;;;12.76;86.65;100449.29;127147;1286;106538;-78
2022/10/29 04:46:40;;;;;;;10.10;5.60;;;;;;;12.80;86.70;100440.16;127047;1283;107475;-78
2022/10/29 04:49:45;;;;;;;7.60;5.20;;;;;;;12.83;86.48;100437.92;126925;1283;107420;-76
2022/10/29 04:52:51;;;;;;;9.90;5.80;;;;;;;12.84;86.53;100441.95;126880;1286;107379;-78
2022/10/29 04:56:04;;;;;;;7.90;5.30;;;;;;;12.82;86.41;100442.30;126836;1283;107536;-78
2022/10/29 04:59:09;;;;;;;9.30;6.10;;;;;;;12.79;86.52;100451.20;126869;1275;107410;-79
2022/10/29 05:02:15;;;;;;;9.10;5.10;;;;;;;12.75;86.58;100455.66;126821;1283;106452;-79
2022/10/29 05:05:21;;;;;;;6.90;4.60;;;;;;;12.73;86.55;100464.83;126820;1285;107618;-79
2022/10/29 05:08:27;;;;;;;8.60;5.20;;;;;;;12.73;86.48;100470.05;126865;1280;107517;-74
2022/10/29 05:11:32;;;;;;;9.40;5.10;;;;;;;12.73;86.35;100466.45;126871;1299;107511;-75
2022/10/29 05:14:38;;;;;;;16.20;11.50;;;;;;;12.73;86.45;100471.09;126882;1289;108654;-75
2022/10/29 05:17:43;;;;;;;52.90;29.40;;;;;;;12.70;86.33;100481.15;126927;1283;105502;-74
2022/10/29 05:20:52;;;;;;;52.00;27.80;;;;;;;12.68;86.33;100490.66;126810;1283;107320;-75
2022/10/29 05:23:57;;;;;;;17.40;10.60;;;;;;;12.65;86.45;100486.42;126809;1283;105733;-75
2022/10/29 05:27:05;;;;;;;13.10;8.20;;;;;;;12.63;86.29;100484.67;126801;1276;107499;-75
2022/10/29 05:30:11;;;;;;;9.00;6.40;;;;;;;12.61;86.27;100486.30;126883;1285;107441;-75
2022/10/29 05:33:19;;;;;;;11.20;5.60;;;;;;;12.60;86.29;100484.93;126921;1280;107802;-76
2022/10/29 05:36:25;;;;;;;10.60;6.50;;;;;;;12.60;86.29;100487.40;126866;1286;105603;-74
2022/10/29 05:39:30;;;;;;;8.90;5.40;;;;;;;12.59;86.39;100488.04;126843;1285;106550;-73
2022/10/29 05:42:38;;;;;;;9.80;5.80;;;;;;;12.55;86.19;100482.91;126927;1288;107406;-75
2022/10/29 05:45:44;;;;;;;10.80;5.70;;;;;;;12.52;86.18;100480.77;127014;1280;107493;-76
2022/10/29 05:48:49;;;;;;;8.00;4.90;;;;;;;12.47;86.30;100482.20;126848;1280;106265;-75
2022/10/29 05:51:55;;;;;;;6.20;4.20;;;;;;;12.43;86.22;100478.48;126830;1276;107531;-76
2022/10/29 05:55:00;;;;;;;9.10;5.70;;;;;;;12.42;86.38;100476.11;126805;1275;107580;-74
2022/10/29 05:58:07;;;;;;;9.90;6.40;;;;;;;12.43;86.42;100470.82;126861;1280;107413;-75
2022/10/29 06:01:12;;;;;;;11.90;10.00;;;;;;;12.45;86.37;100472.38;127113;1285;107502;-74
2022/10/29 06:04:18;;;;;;;11.40;6.50;;;;;;;12.48;86.35;100483.10;126969;1285;107512;-74
2022/10/29 06:07:23;;;;;;;9.90;7.30;;;;;;;12.50;86.47;100481.66;127105;1280;107619;-76
2022/10/29 06:10:30;;;;;;;10.50;5.10;;;;;;;12.49;86.42;100484.04;126877;1280;107362;-74
2022/10/29 06:13:35;;;;;;;109.80;51.30;;;;;;;12.50;86.43;100486.52;126821;1280;106381;-74
2022/10/29 06:16:42;;;;;;;29.20;14.90;;;;;;;12.52;86.60;100489.84;127092;1283;107803;-74
2022/10/29 06:19:48;;;;;;;24.50;12.80;;;;;;;12.57;86.44;100495.02;127125;1275;107455;-75
2022/10/29 06:22:59;;;;;;;16.00;8.10;;;;;;;12.63;86.50;100492.85;127171;1275;107689;-74
2022/10/29 06:26:04;;;;;;;11.00;7.80;;;;;;;12.68;86.43;100492.63;127439;1286;107416;-75
2022/10/29 06:29:10;;;;;;;10.30;6.50;;;;;;;12.75;86.58;100496.54;126992;1280;107572;-75
2022/10/29 06:32:15;;;;;;;8.50;5.40;;;;;;;12.80;86.64;100497.13;126862;1279;107532;-75
2022/10/29 06:35:20;;;;;;;7.10;5.30;;;;;;;12.84;86.47;100493.80;126851;1287;107536;-74
2022/10/29 06:38:26;;;;;;;10.40;6.10;;;;;;;12.89;86.58;100501.14;126840;1296;107736;-75
2022/10/29 06:41:31;;;;;;;9.10;6.70;;;;;;;12.97;86.61;100499.79;126928;1278;106618;-76
2022/10/29 06:44:39;;;;;;;71.00;47.00;;;;;;;13.06;86.58;100503.84;126809;1280;106785;-78
2022/10/29 06:47:46;;;;;;;53.00;25.10;;;;;;;13.14;86.49;100511.06;127138;1289;106635;-77
2022/10/29 06:50:51;;;;;;;66.50;40.60;;;;;;;13.20;86.39;100508.29;127141;1279;107516;-75
2022/10/29 06:53:57;;;;;;;36.50;17.00;;;;;;;13.25;86.55;100510.55;127008;1280;107355;-74
2022/10/29 06:57:02;;;;;;;193.80;69.00;;;;;;;13.32;86.37;100512.89;127147;1280;107210;-73
2022/10/29 07:00:10;;;;;;;196.90;68.50;;;;;;;13.42;86.74;100523.95;126979;1279;107494;-74
2022/10/29 07:03:17;;;;;;;154.60;54.20;;;;;;;13.53;86.55;100523.63;127076;1280;106778;-75
2022/10/29 07:06:23;;;;;;;148.10;54.20;;;;;;;13.67;86.38;100523.58;126840;1280;107490;-74
2022/10/29 07:09:28;;;;;;;98.10;34.00;;;;;;;13.79;86.40;100521.30;127027;1286;107535;-76
2022/10/29 07:12:38;;;;;;;111.20;39.80;;;;;;;13.88;86.26;100527.00;127150;1280;106559;-79
2022/10/29 07:15:44;;;;;;;92.80;32.60;;;;;;;13.97;86.37;100522.87;127206;1280;107230;-78
2022/10/29 07:18:49;;;;;;;81.80;29.90;;;;;;;14.07;86.39;100518.53;126849;1289;107401;-78
2022/10/29 07:21:54;;;;;;;64.40;27.10;;;;;;;14.19;86.23;100516.98;127009;1280;107435;-76
2022/10/29 07:25:00;;;;;;;68.70;25.40;;;;;;;14.34;86.18;100517.18;127078;1278;107310;-78
2022/10/29 07:28:06;;;;;;;60.10;22.50;;;;;;;14.48;86.25;100508.96;127052;1280;107547;-78
2022/10/29 07:31:12;;;;;;;65.00;23.90;;;;;;;14.62;86.09;100516.20;127019;1280;107252;-76
2022/10/29 07:34:18;;;;;;;41.10;14.00;;;;;;;14.75;86.08;100515.45;126942;1285;107551;-74
2022/10/29 07:37:23;;;;;;;57.00;18.50;;;;;;;14.86;85.90;100509.70;126943;1288;107542;-78
2022/10/29 07:40:29;;;;;;;65.30;21.10;;;;;;;14.98;85.83;100506.79;126813;1282;107695;-77
2022/10/29 07:43:34;;;;;;;43.70;14.70;;;;;;;15.12;85.69;100504.59;126869;1280;106603;-77
2022/10/29 07:46:40;;;;;;;35.40;12.00;;;;;;;15.28;85.66;100507.20;126843;1280;108039;-77
2022/10/29 07:49:45;;;;;;;27.80;10.80;;;;;;;15.45;85.51;100505.59;126876;1289;107515;-76
2022/10/29 07:52:50;;;;;;;16.40;7.80;;;;;;;15.60;85.35;100504.28;126813;1286;107771;-76
2022/10/29 07:55:57;;;;;;;52.90;16.30;;;;;;;15.69;84.91;100499.96;126801;1285;107499;-76
2022/10/29 07:59:02;;;;;;;47.90;17.40;;;;;;;15.79;84.77;100499.95;126801;1285;107530;-76
2022/10/29 08:02:10;;;;;;;22.10;8.60;;;;;;;15.88;85.02;100502.30;126812;1280;107421;-76
2022/10/29 08:05:16;;;;;;;22.50;7.60;;;;;;;15.97;84.61;100504.94;126782;1285;107415;-75
2022/10/29 08:08:21;;;;;;;33.30;12.50;;;;;;;16.06;83.89;100504.91;126790;1272;107487;-75
2022/10/29 08:11:27;;;;;;;15.80;7.90;;;;;;;16.19;84.58;100507.35;126792;1288;107473;-77
2022/10/29 08:14:32;;;;;;;19.20;9.10;;;;;;;16.27;84.12;100517.09;126730;1286;107512;-78
2022/10/29 08:17:38;;;;;;;28.30;11.00;;;;;;;16.34;83.67;100521.00;126677;1302;107498;-74
2022/10/29 08:20:43;;;;;;;15.60;8.30;;;;;;;16.39;83.91;100529.56;126615;1302;107519;-72
2022/10/29 08:23:49;;;;;;;20.60;8.30;;;;;;;16.44;83.50;100536.64;126618;1296;107457;-73
2022/10/29 08:26:54;;;;;;;20.00;8.90;;;;;;;16.45;82.81;100532.96;126627;1289;106536;-74
2022/10/29 08:29:59;;;;;;;15.00;7.20;;;;;;;16.47;82.59;100525.50;126623;1288;106618;-74
2022/10/29 08:33:05;;;;;;;18.30;8.20;;;;;;;16.51;82.82;100530.31;126651;1296;106372;-76
2022/10/29 08:36:11;;;;;;;34.80;13.70;;;;;;;16.60;83.20;100530.95;126628;1290;108657;-76
2022/10/29 08:39:16;;;;;;;27.30;9.00;;;;;;;16.68;82.80;100529.64;126624;1296;106234;-75
2022/10/29 08:42:36;;;;;;;11.60;6.80;;;;;;;16.68;81.28;100528.06;126634;1296;107513;-75
2022/10/29 08:45:47;;;;;;;64.40;20.00;;;;;;;16.61;81.30;100522.25;126662;1294;107516;-75
2022/10/29 08:48:58;;;;;;;52.50;18.20;;;;;;;16.65;82.66;100520.83;126615;1296;107481;-75
2022/10/29 08:52:10;;;;;;;65.70;23.10;;;;;;;16.74;82.80;100528.52;126635;1296;108626;-74
2022/10/29 08:55:18;;;;;;;16.30;8.60;;;;;;;16.82;82.74;100523.50;127109;1286;107338;-72
2022/10/29 08:58:37;;;;;;;16.60;7.90;;;;;;;16.84;81.92;100530.42;126897;1279;107502;-72
2022/10/29 09:01:43;;;;;;;13.50;6.50;;;;;;;16.86;81.55;100536.30;126830;1279;107325;-72
2022/10/29 09:04:49;;;;;;;11.30;6.80;;;;;;;16.90;81.58;100530.48;127106;1285;105972;-72
2022/10/29 09:08:12;;;;;;;16.10;7.60;;;;;;;16.96;81.26;100521.33;127045;1279;107497;-78
2022/10/29 09:11:48;;;;;;;18.00;7.40;;;;;;;17.10;82.13;100520.67;126864;1278;106850;-78
2022/10/29 09:15:25;;;;;;;14.20;7.40;;;;;;;17.25;81.21;100516.57;126768;1282;105784;-76
